sensor_id;sensor_type;location;lat;lon;timestamp;P1;durP1;ratioP1;P2;durP2;ratioP2
77099;SDS011;66602;48.922;2.414;2023-02-16T00:01:43;50.80;;;28.48;;
77099;SDS011;66602;48.922;2.414;2023-02-16T00:04:22;44.60;;;25.95;;
77099;SDS011;66602;48.922;2.414;2023-02-16T00:06:51;50.90;;;27.73;;
77099;SDS011;66602;48.922;2.414;2023-02-16T00:09:18;41.28;;;25.92;;
77099;SDS011;66602;48.922;2.414;2023-02-16T00:11:45;45.70;;;26.48;;
77099;SDS011;66602;48.922;2.414;2023-02-16T00:14:31;43.80;;;25.30;;
77099;SDS011;66602;48.922;2.414;2023-02-16T00:16:59;36.70;;;22.60;;
77099;SDS011;66602;48.922;2.414;2023-02-16T00:19:26;40.47;;;24.55;;
77099;SDS011;66602;48.922;2.414;2023-02-16T00:21:54;39.90;;;24.98;;
77099;SDS011;66602;48.922;2.414;2023-02-16T00:24:22;43.03;;;24.98;;
77099;SDS011;66602;48.922;2.414;2023-02-16T00:26:47;37.42;;;22.83;;
77099;SDS011;66602;48.922;2.414;2023-02-16T00:29:27;41.42;;;24.45;;
77099;SDS011;66602;48.922;2.414;2023-02-16T00:32:00;32.88;;;21.60;;
77099;SDS011;66602;48.922;2.414;2023-02-16T00:34:35;43.45;;;22.50;;
77099;SDS011;66602;48.922;2.414;2023-02-16T00:37:04;31.77;;;20.92;;
77099;SDS011;66602;48.922;2.414;2023-02-16T00:39:32;37.90;;;23.58;;
77099;SDS011;66602;48.922;2.414;2023-02-16T00:41:59;41.03;;;24.88;;
77099;SDS011;66602;48.922;2.414;2023-02-16T00:44:40;34.45;;;22.42;;
77099;SDS011;66602;48.922;2.414;2023-02-16T00:49:50;38.42;;;20.63;;
77099;SDS011;66602;48.922;2.414;2023-02-16T00:52:26;32.25;;;20.73;;
77099;SDS011;66602;48.922;2.414;2023-02-16T00:55:04;41.40;;;23.77;;
77099;SDS011;66602;48.922;2.414;2023-02-16T00:57:53;28.70;;;20.67;;
77099;SDS011;66602;48.922;2.414;2023-02-16T01:00:48;43.17;;;25.40;;
77099;SDS011;66602;48.922;2.414;2023-02-16T01:03:23;39.72;;;22.00;;
77099;SDS011;66602;48.922;2.414;2023-02-16T01:05:50;29.25;;;20.02;;
77099;SDS011;66602;48.922;2.414;2023-02-16T01:08:39;34.63;;;19.52;;
77099;SDS011;66602;48.922;2.414;2023-02-16T01:11:24;28.45;;;18.60;;
77099;SDS011;66602;48.922;2.414;2023-02-16T01:13:51;26.58;;;19.08;;
77099;SDS011;66602;48.922;2.414;2023-02-16T01:16:20;29.65;;;19.88;;
77099;SDS011;66602;48.922;2.414;2023-02-16T01:18:50;35.55;;;21.20;;
77099;SDS011;66602;48.922;2.414;2023-02-16T01:21:16;35.78;;;23.92;;
77099;SDS011;66602;48.922;2.414;2023-02-16T01:23:42;41.83;;;24.30;;
77099;SDS011;66602;48.922;2.414;2023-02-16T01:26:13;28.17;;;20.17;;
77099;SDS011;66602;48.922;2.414;2023-02-16T01:28:41;27.48;;;20.45;;
77099;SDS011;66602;48.922;2.414;2023-02-16T01:31:11;35.47;;;21.83;;
77099;SDS011;66602;48.922;2.414;2023-02-16T01:33:38;32.58;;;21.15;;
77099;SDS011;66602;48.922;2.414;2023-02-16T01:36:04;28.95;;;19.40;;
77099;SDS011;66602;48.922;2.414;2023-02-16T01:38:31;27.08;;;19.00;;
77099;SDS011;66602;48.922;2.414;2023-02-16T01:41:03;31.20;;;20.17;;
77099;SDS011;66602;48.922;2.414;2023-02-16T01:43:58;33.85;;;19.45;;
77099;SDS011;66602;48.922;2.414;2023-02-16T01:49:00;33.42;;;20.33;;
77099;SDS011;66602;48.922;2.414;2023-02-16T01:51:27;30.17;;;20.65;;
77099;SDS011;66602;48.922;2.414;2023-02-16T01:53:59;32.03;;;19.70;;
77099;SDS011;66602;48.922;2.414;2023-02-16T01:56:48;29.65;;;17.20;;
77099;SDS011;66602;48.922;2.414;2023-02-16T02:02:24;27.92;;;18.50;;
77099;SDS011;66602;48.922;2.414;2023-02-16T02:04:56;27.50;;;19.08;;
77099;SDS011;66602;48.922;2.414;2023-02-16T02:10:49;22.63;;;16.67;;
77099;SDS011;66602;48.922;2.414;2023-02-16T02:16:11;29.75;;;19.88;;
77099;SDS011;66602;48.922;2.414;2023-02-16T02:18:41;30.20;;;18.77;;
77099;SDS011;66602;48.922;2.414;2023-02-16T02:41:30;28.65;;;18.98;;
77099;SDS011;66602;48.922;2.414;2023-02-16T02:44:21;30.27;;;18.58;;
77099;SDS011;66602;48.922;2.414;2023-02-16T02:46:50;18.77;;;16.00;;
77099;SDS011;66602;48.922;2.414;2023-02-16T02:49:17;22.90;;;16.20;;
77099;SDS011;66602;48.922;2.414;2023-02-16T02:51:42;24.65;;;17.55;;
77099;SDS011;66602;48.922;2.414;2023-02-16T02:54:15;26.45;;;18.13;;
77099;SDS011;66602;48.922;2.414;2023-02-16T03:00:03;29.98;;;19.10;;
77099;SDS011;66602;48.922;2.414;2023-02-16T03:02:49;27.27;;;17.50;;
77099;SDS011;66602;48.922;2.414;2023-02-16T03:05:17;26.58;;;18.13;;
77099;SDS011;66602;48.922;2.414;2023-02-16T03:07:47;25.60;;;18.15;;
77099;SDS011;66602;48.922;2.414;2023-02-16T03:10:20;33.22;;;20.33;;
77099;SDS011;66602;48.922;2.414;2023-02-16T03:13:31;29.38;;;18.85;;
77099;SDS011;66602;48.922;2.414;2023-02-16T03:16:07;32.85;;;20.13;;
77099;SDS011;66602;48.922;2.414;2023-02-16T03:18:37;25.27;;;18.83;;
77099;SDS011;66602;48.922;2.414;2023-02-16T03:21:24;22.95;;;16.35;;
77099;SDS011;66602;48.922;2.414;2023-02-16T03:24:11;22.73;;;16.42;;
77099;SDS011;66602;48.922;2.414;2023-02-16T03:26:58;20.05;;;15.82;;
77099;SDS011;66602;48.922;2.414;2023-02-16T03:29:44;31.58;;;17.05;;
77099;SDS011;66602;48.922;2.414;2023-02-16T03:32:11;24.10;;;17.48;;
77099;SDS011;66602;48.922;2.414;2023-02-16T03:34:36;25.08;;;17.58;;
77099;SDS011;66602;48.922;2.414;2023-02-16T03:37:02;20.88;;;16.63;;
77099;SDS011;66602;48.922;2.414;2023-02-16T03:39:28;25.23;;;15.65;;
77099;SDS011;66602;48.922;2.414;2023-02-16T03:41:55;20.02;;;15.25;;
77099;SDS011;66602;48.922;2.414;2023-02-16T03:44:21;24.98;;;17.17;;
77099;SDS011;66602;48.922;2.414;2023-02-16T03:46:48;21.23;;;16.25;;
77099;SDS011;66602;48.922;2.414;2023-02-16T03:49:15;23.05;;;17.08;;
77099;SDS011;66602;48.922;2.414;2023-02-16T03:51:41;22.38;;;16.17;;
77099;SDS011;66602;48.922;2.414;2023-02-16T03:54:10;22.80;;;16.77;;
77099;SDS011;66602;48.922;2.414;2023-02-16T03:56:37;24.67;;;15.55;;
77099;SDS011;66602;48.922;2.414;2023-02-16T03:59:02;20.10;;;15.00;;
77099;SDS011;66602;48.922;2.414;2023-02-16T04:01:28;26.33;;;16.45;;
77099;SDS011;66602;48.922;2.414;2023-02-16T04:03:53;21.80;;;15.50;;
77099;SDS011;66602;48.922;2.414;2023-02-16T04:06:19;23.95;;;17.80;;
77099;SDS011;66602;48.922;2.414;2023-02-16T04:08:44;23.38;;;17.00;;
77099;SDS011;66602;48.922;2.414;2023-02-16T04:11:10;22.23;;;17.40;;
77099;SDS011;66602;48.922;2.414;2023-02-16T04:16:19;18.98;;;16.42;;
77099;SDS011;66602;48.922;2.414;2023-02-16T04:18:45;21.40;;;15.32;;
77099;SDS011;66602;48.922;2.414;2023-02-16T04:21:10;18.85;;;15.68;;
77099;SDS011;66602;48.922;2.414;2023-02-16T04:23:36;22.50;;;15.85;;
77099;SDS011;66602;48.922;2.414;2023-02-16T04:26:02;21.35;;;16.35;;
77099;SDS011;66602;48.922;2.414;2023-02-16T04:28:27;19.23;;;15.95;;
77099;SDS011;66602;48.922;2.414;2023-02-16T04:30:53;26.23;;;16.42;;
77099;SDS011;66602;48.922;2.414;2023-02-16T04:33:18;25.13;;;15.75;;
77099;SDS011;66602;48.922;2.414;2023-02-16T04:35:44;21.83;;;14.43;;
77099;SDS011;66602;48.922;2.414;2023-02-16T04:38:09;23.38;;;16.15;;
77099;SDS011;66602;48.922;2.414;2023-02-16T04:40:35;21.50;;;16.35;;
77099;SDS011;66602;48.922;2.414;2023-02-16T04:43:00;23.23;;;17.00;;
77099;SDS011;66602;48.922;2.414;2023-02-16T04:45:26;21.02;;;16.17;;
77099;SDS011;66602;48.922;2.414;2023-02-16T04:47:51;22.45;;;16.67;;
77099;SDS011;66602;48.922;2.414;2023-02-16T04:50:17;27.30;;;17.25;;
77099;SDS011;66602;48.922;2.414;2023-02-16T04:52:42;29.58;;;17.00;;
77099;SDS011;66602;48.922;2.414;2023-02-16T04:55:08;22.88;;;16.23;;
77099;SDS011;66602;48.922;2.414;2023-02-16T04:57:35;36.22;;;17.90;;
77099;SDS011;66602;48.922;2.414;2023-02-16T05:00:02;26.63;;;16.70;;
77099;SDS011;66602;48.922;2.414;2023-02-16T05:02:29;25.17;;;17.88;;
77099;SDS011;66602;48.922;2.414;2023-02-16T05:04:56;26.17;;;16.92;;
77099;SDS011;66602;48.922;2.414;2023-02-16T05:07:22;26.38;;;17.23;;
77099;SDS011;66602;48.922;2.414;2023-02-16T05:09:47;24.15;;;17.20;;
77099;SDS011;66602;48.922;2.414;2023-02-16T05:12:13;21.35;;;16.38;;
77099;SDS011;66602;48.922;2.414;2023-02-16T05:15:13;21.77;;;15.73;;
77099;SDS011;66602;48.922;2.414;2023-02-16T05:17:39;33.28;;;19.20;;
77099;SDS011;66602;48.922;2.414;2023-02-16T05:20:05;24.17;;;16.98;;
77099;SDS011;66602;48.922;2.414;2023-02-16T05:22:30;27.23;;;17.80;;
77099;SDS011;66602;48.922;2.414;2023-02-16T05:24:58;29.42;;;17.77;;
77099;SDS011;66602;48.922;2.414;2023-02-16T05:27:26;23.27;;;17.63;;
77099;SDS011;66602;48.922;2.414;2023-02-16T05:29:53;23.95;;;15.68;;
77099;SDS011;66602;48.922;2.414;2023-02-16T05:32:19;23.15;;;16.65;;
77099;SDS011;66602;48.922;2.414;2023-02-16T05:34:45;19.48;;;15.00;;
77099;SDS011;66602;48.922;2.414;2023-02-16T05:37:11;19.05;;;15.55;;
77099;SDS011;66602;48.922;2.414;2023-02-16T05:39:37;19.27;;;14.57;;
77099;SDS011;66602;48.922;2.414;2023-02-16T05:42:02;20.90;;;15.57;;
77099;SDS011;66602;48.922;2.414;2023-02-16T05:44:28;24.50;;;16.33;;
77099;SDS011;66602;48.922;2.414;2023-02-16T05:46:54;24.33;;;16.40;;
77099;SDS011;66602;48.922;2.414;2023-02-16T05:49:19;23.05;;;14.85;;
77099;SDS011;66602;48.922;2.414;2023-02-16T05:51:45;28.33;;;16.73;;
77099;SDS011;66602;48.922;2.414;2023-02-16T05:54:11;21.70;;;16.00;;
77099;SDS011;66602;48.922;2.414;2023-02-16T05:56:42;24.88;;;15.68;;
77099;SDS011;66602;48.922;2.414;2023-02-16T05:59:09;24.70;;;15.52;;
77099;SDS011;66602;48.922;2.414;2023-02-16T06:01:34;17.25;;;14.77;;
77099;SDS011;66602;48.922;2.414;2023-02-16T06:04:00;24.98;;;15.73;;
77099;SDS011;66602;48.922;2.414;2023-02-16T06:06:25;25.42;;;15.63;;
77099;SDS011;66602;48.922;2.414;2023-02-16T06:08:51;20.13;;;14.82;;
77099;SDS011;66602;48.922;2.414;2023-02-16T06:11:16;21.52;;;15.30;;
77099;SDS011;66602;48.922;2.414;2023-02-16T06:14:00;22.95;;;14.85;;
77099;SDS011;66602;48.922;2.414;2023-02-16T06:16:31;16.50;;;14.75;;
77099;SDS011;66602;48.922;2.414;2023-02-16T06:18:58;17.92;;;14.52;;
77099;SDS011;66602;48.922;2.414;2023-02-16T06:21:24;17.70;;;13.48;;
77099;SDS011;66602;48.922;2.414;2023-02-16T06:23:50;24.95;;;15.05;;
77099;SDS011;66602;48.922;2.414;2023-02-16T06:26:18;19.90;;;14.65;;
77099;SDS011;66602;48.922;2.414;2023-02-16T06:28:44;23.30;;;14.48;;
77099;SDS011;66602;48.922;2.414;2023-02-16T06:31:09;20.65;;;14.93;;
77099;SDS011;66602;48.922;2.414;2023-02-16T06:33:35;16.90;;;14.70;;
77099;SDS011;66602;48.922;2.414;2023-02-16T06:36:01;21.75;;;14.20;;
77099;SDS011;66602;48.922;2.414;2023-02-16T06:38:27;20.75;;;14.95;;
77099;SDS011;66602;48.922;2.414;2023-02-16T06:40:52;19.58;;;14.15;;
77099;SDS011;66602;48.922;2.414;2023-02-16T06:43:19;20.10;;;13.80;;
77099;SDS011;66602;48.922;2.414;2023-02-16T06:45:45;17.50;;;14.18;;
77099;SDS011;66602;48.922;2.414;2023-02-16T06:48:11;16.08;;;14.10;;
77099;SDS011;66602;48.922;2.414;2023-02-16T06:50:36;19.42;;;15.48;;
77099;SDS011;66602;48.922;2.414;2023-02-16T06:53:02;15.70;;;13.55;;
77099;SDS011;66602;48.922;2.414;2023-02-16T06:55:27;16.30;;;13.77;;
77099;SDS011;66602;48.922;2.414;2023-02-16T06:57:55;18.13;;;14.00;;
77099;SDS011;66602;48.922;2.414;2023-02-16T07:00:21;15.40;;;13.30;;
77099;SDS011;66602;48.922;2.414;2023-02-16T07:02:46;17.55;;;15.00;;
77099;SDS011;66602;48.922;2.414;2023-02-16T07:05:12;21.80;;;14.55;;
77099;SDS011;66602;48.922;2.414;2023-02-16T07:07:37;14.98;;;13.25;;
77099;SDS011;66602;48.922;2.414;2023-02-16T07:10:03;20.13;;;13.43;;
77099;SDS011;66602;48.922;2.414;2023-02-16T07:12:29;16.30;;;13.85;;
77099;SDS011;66602;48.922;2.414;2023-02-16T07:14:54;20.17;;;14.45;;
77099;SDS011;66602;48.922;2.414;2023-02-16T07:17:20;22.77;;;14.15;;
77099;SDS011;66602;48.922;2.414;2023-02-16T07:19:46;17.77;;;13.73;;
77099;SDS011;66602;48.922;2.414;2023-02-16T07:22:12;19.80;;;13.98;;
77099;SDS011;66602;48.922;2.414;2023-02-16T07:24:37;22.60;;;14.98;;
77099;SDS011;66602;48.922;2.414;2023-02-16T07:27:03;22.48;;;14.45;;
77099;SDS011;66602;48.922;2.414;2023-02-16T07:29:29;18.60;;;13.98;;
77099;SDS011;66602;48.922;2.414;2023-02-16T07:31:55;19.20;;;14.13;;
77099;SDS011;66602;48.922;2.414;2023-02-16T07:34:21;21.00;;;15.77;;
77099;SDS011;66602;48.922;2.414;2023-02-16T07:36:47;24.55;;;14.15;;
77099;SDS011;66602;48.922;2.414;2023-02-16T07:39:13;17.95;;;14.20;;
77099;SDS011;66602;48.922;2.414;2023-02-16T07:41:38;30.27;;;14.48;;
77099;SDS011;66602;48.922;2.414;2023-02-16T07:44:04;16.13;;;13.93;;
77099;SDS011;66602;48.922;2.414;2023-02-16T07:46:30;19.92;;;14.15;;
77099;SDS011;66602;48.922;2.414;2023-02-16T07:48:55;21.95;;;14.63;;
77099;SDS011;66602;48.922;2.414;2023-02-16T07:51:21;19.15;;;14.40;;
77099;SDS011;66602;48.922;2.414;2023-02-16T07:53:51;26.83;;;14.32;;
77099;SDS011;66602;48.922;2.414;2023-02-16T07:56:18;23.92;;;14.95;;
77099;SDS011;66602;48.922;2.414;2023-02-16T07:58:44;24.95;;;14.50;;
77099;SDS011;66602;48.922;2.414;2023-02-16T08:01:11;19.77;;;13.43;;
77099;SDS011;66602;48.922;2.414;2023-02-16T08:03:38;22.08;;;13.70;;
77099;SDS011;66602;48.922;2.414;2023-02-16T08:06:04;17.25;;;13.70;;
77099;SDS011;66602;48.922;2.414;2023-02-16T08:08:31;18.40;;;13.68;;
77099;SDS011;66602;48.922;2.414;2023-02-16T08:10:57;19.15;;;13.57;;
77099;SDS011;66602;48.922;2.414;2023-02-16T08:13:22;21.13;;;13.70;;
77099;SDS011;66602;48.922;2.414;2023-02-16T08:15:48;18.70;;;13.52;;
77099;SDS011;66602;48.922;2.414;2023-02-16T08:18:14;19.05;;;14.73;;
77099;SDS011;66602;48.922;2.414;2023-02-16T08:20:39;21.40;;;13.00;;
77099;SDS011;66602;48.922;2.414;2023-02-16T08:23:05;28.35;;;13.57;;
77099;SDS011;66602;48.922;2.414;2023-02-16T08:25:34;28.88;;;14.48;;
77099;SDS011;66602;48.922;2.414;2023-02-16T08:27:59;23.35;;;13.95;;
77099;SDS011;66602;48.922;2.414;2023-02-16T08:30:25;27.85;;;14.05;;
77099;SDS011;66602;48.922;2.414;2023-02-16T08:32:50;17.77;;;13.40;;
77099;SDS011;66602;48.922;2.414;2023-02-16T08:35:17;17.63;;;13.23;;
77099;SDS011;66602;48.922;2.414;2023-02-16T08:37:43;15.88;;;12.95;;
77099;SDS011;66602;48.922;2.414;2023-02-16T08:40:10;18.42;;;13.75;;
77099;SDS011;66602;48.922;2.414;2023-02-16T08:42:36;25.27;;;13.70;;
77099;SDS011;66602;48.922;2.414;2023-02-16T08:45:02;20.20;;;13.30;;
77099;SDS011;66602;48.922;2.414;2023-02-16T08:47:29;29.40;;;14.52;;
77099;SDS011;66602;48.922;2.414;2023-02-16T08:49:55;23.17;;;13.43;;
77099;SDS011;66602;48.922;2.414;2023-02-16T08:52:20;15.43;;;13.52;;
77099;SDS011;66602;48.922;2.414;2023-02-16T08:54:46;20.88;;;12.75;;
77099;SDS011;66602;48.922;2.414;2023-02-16T08:57:12;24.27;;;13.95;;
77099;SDS011;66602;48.922;2.414;2023-02-16T08:59:37;19.40;;;14.30;;
77099;SDS011;66602;48.922;2.414;2023-02-16T09:02:03;15.95;;;13.32;;
77099;SDS011;66602;48.922;2.414;2023-02-16T09:04:29;19.77;;;13.93;;
77099;SDS011;66602;48.922;2.414;2023-02-16T09:06:55;24.73;;;13.77;;
77099;SDS011;66602;48.922;2.414;2023-02-16T09:09:22;28.13;;;14.25;;
77099;SDS011;66602;48.922;2.414;2023-02-16T09:11:47;26.67;;;13.82;;
77099;SDS011;66602;48.922;2.414;2023-02-16T09:14:14;20.30;;;13.98;;
77099;SDS011;66602;48.922;2.414;2023-02-16T09:16:41;18.08;;;13.65;;
77099;SDS011;66602;48.922;2.414;2023-02-16T09:19:11;22.27;;;13.65;;
77099;SDS011;66602;48.922;2.414;2023-02-16T09:21:39;23.02;;;14.00;;
77099;SDS011;66602;48.922;2.414;2023-02-16T09:24:05;24.73;;;12.95;;
77099;SDS011;66602;48.922;2.414;2023-02-16T09:26:33;28.90;;;12.90;;
77099;SDS011;66602;48.922;2.414;2023-02-16T09:29:02;25.95;;;14.27;;
77099;SDS011;66602;48.922;2.414;2023-02-16T09:31:29;16.65;;;13.27;;
77099;SDS011;66602;48.922;2.414;2023-02-16T09:34:03;17.63;;;13.80;;
77099;SDS011;66602;48.922;2.414;2023-02-16T09:36:38;15.13;;;12.93;;
77099;SDS011;66602;48.922;2.414;2023-02-16T09:39:03;18.55;;;14.07;;
77099;SDS011;66602;48.922;2.414;2023-02-16T09:41:39;15.65;;;14.00;;
77099;SDS011;66602;48.922;2.414;2023-02-16T09:44:09;22.38;;;13.77;;
77099;SDS011;66602;48.922;2.414;2023-02-16T09:46:49;20.70;;;13.55;;
77099;SDS011;66602;48.922;2.414;2023-02-16T09:49:39;31.65;;;13.90;;
77099;SDS011;66602;48.922;2.414;2023-02-16T09:52:52;26.35;;;13.27;;
77099;SDS011;66602;48.922;2.414;2023-02-16T09:54:57;19.38;;;13.70;;
77099;SDS011;66602;48.922;2.414;2023-02-16T09:57:39;24.60;;;14.57;;
77099;SDS011;66602;48.922;2.414;2023-02-16T10:06:14;19.70;;;14.15;;
77099;SDS011;66602;48.922;2.414;2023-02-16T10:09:08;19.92;;;14.90;;
77099;SDS011;66602;48.922;2.414;2023-02-16T10:11:50;26.27;;;13.98;;
77099;SDS011;66602;48.922;2.414;2023-02-16T10:28:18;27.65;;;14.13;;
77099;SDS011;66602;48.922;2.414;2023-02-16T10:30:49;19.30;;;14.32;;
77099;SDS011;66602;48.922;2.414;2023-02-16T10:33:37;20.17;;;14.48;;
77099;SDS011;66602;48.922;2.414;2023-02-16T10:41:46;17.58;;;13.65;;
77099;SDS011;66602;48.922;2.414;2023-02-16T10:46:54;15.90;;;13.18;;
77099;SDS011;66602;48.922;2.414;2023-02-16T10:49:25;20.13;;;15.00;;
77099;SDS011;66602;48.922;2.414;2023-02-16T10:51:54;25.55;;;13.82;;
77099;SDS011;66602;48.922;2.414;2023-02-16T10:54:24;19.23;;;14.95;;
77099;SDS011;66602;48.922;2.414;2023-02-16T10:56:59;16.33;;;13.43;;
77099;SDS011;66602;48.922;2.414;2023-02-16T11:01:56;16.48;;;14.25;;
77099;SDS011;66602;48.922;2.414;2023-02-16T11:04:30;23.20;;;13.93;;
77099;SDS011;66602;48.922;2.414;2023-02-16T11:07:10;14.98;;;12.88;;
77099;SDS011;66602;48.922;2.414;2023-02-16T11:09:38;15.48;;;11.80;;
77099;SDS011;66602;48.922;2.414;2023-02-16T11:14:52;16.27;;;12.73;;
77099;SDS011;66602;48.922;2.414;2023-02-16T11:17:47;18.63;;;11.23;;
77099;SDS011;66602;48.922;2.414;2023-02-16T11:20:26;23.52;;;12.68;;
77099;SDS011;66602;48.922;2.414;2023-02-16T11:23:39;13.25;;;11.27;;
77099;SDS011;66602;48.922;2.414;2023-02-16T11:28:29;13.10;;;11.80;;
77099;SDS011;66602;48.922;2.414;2023-02-16T11:33:27;13.07;;;11.00;;
77099;SDS011;66602;48.922;2.414;2023-02-16T11:36:00;16.30;;;12.03;;
77099;SDS011;66602;48.922;2.414;2023-02-16T11:38:33;18.00;;;12.60;;
77099;SDS011;66602;48.922;2.414;2023-02-16T11:41:03;18.45;;;11.48;;
77099;SDS011;66602;48.922;2.414;2023-02-16T11:43:34;17.80;;;11.15;;
77099;SDS011;66602;48.922;2.414;2023-02-16T11:46:09;14.40;;;11.50;;
77099;SDS011;66602;48.922;2.414;2023-02-16T11:48:43;20.15;;;12.85;;
77099;SDS011;66602;48.922;2.414;2023-02-16T11:51:10;16.17;;;12.55;;
77099;SDS011;66602;48.922;2.414;2023-02-16T11:53:40;16.42;;;12.52;;
77099;SDS011;66602;48.922;2.414;2023-02-16T11:56:12;14.85;;;11.63;;
77099;SDS011;66602;48.922;2.414;2023-02-16T11:58:51;16.25;;;10.95;;
77099;SDS011;66602;48.922;2.414;2023-02-16T12:02:16;12.43;;;10.88;;
77099;SDS011;66602;48.922;2.414;2023-02-16T12:08:09;16.77;;;10.90;;
77099;SDS011;66602;48.922;2.414;2023-02-16T12:13:49;19.63;;;10.70;;
77099;SDS011;66602;48.922;2.414;2023-02-16T12:19:43;18.70;;;10.30;;
77099;SDS011;66602;48.922;2.414;2023-02-16T12:22:19;11.20;;;10.10;;
77099;SDS011;66602;48.922;2.414;2023-02-16T12:36:44;12.82;;;9.70;;
77099;SDS011;66602;48.922;2.414;2023-02-16T12:41:57;8.32;;;7.38;;
77099;SDS011;66602;48.922;2.414;2023-02-16T12:44:51;7.93;;;6.95;;
77099;SDS011;66602;48.922;2.414;2023-02-16T12:47:38;7.28;;;5.90;;
77099;SDS011;66602;48.922;2.414;2023-02-16T12:55:41;8.68;;;5.85;;
77099;SDS011;66602;48.922;2.414;2023-02-16T13:00:53;10.45;;;6.03;;
77099;SDS011;66602;48.922;2.414;2023-02-16T13:06:08;9.50;;;5.88;;
77099;SDS011;66602;48.922;2.414;2023-02-16T13:09:02;13.73;;;5.53;;
77099;SDS011;66602;48.922;2.414;2023-02-16T13:12:04;5.97;;;5.43;;
77099;SDS011;66602;48.922;2.414;2023-02-16T13:14:32;6.88;;;6.22;;
77099;SDS011;66602;48.922;2.414;2023-02-16T13:17:07;10.02;;;6.22;;
77099;SDS011;66602;48.922;2.414;2023-02-16T13:19:40;7.72;;;5.38;;
77099;SDS011;66602;48.922;2.414;2023-02-16T13:22:51;8.75;;;5.22;;
77099;SDS011;66602;48.922;2.414;2023-02-16T13:28:05;3.92;;;3.72;;
77099;SDS011;66602;48.922;2.414;2023-02-16T13:34:41;4.00;;;3.70;;
77099;SDS011;66602;48.922;2.414;2023-02-16T13:45:43;4.53;;;4.07;;
77099;SDS011;66602;48.922;2.414;2023-02-16T13:48:12;5.38;;;3.90;;
77099;SDS011;66602;48.922;2.414;2023-02-16T13:50:57;4.28;;;3.97;;
77099;SDS011;66602;48.922;2.414;2023-02-16T13:53:25;5.65;;;4.43;;
77099;SDS011;66602;48.922;2.414;2023-02-16T14:01:50;7.68;;;4.28;;
77099;SDS011;66602;48.922;2.414;2023-02-16T14:06:47;4.93;;;4.35;;
77099;SDS011;66602;48.922;2.414;2023-02-16T14:27:47;4.80;;;4.35;;
77099;SDS011;66602;48.922;2.414;2023-02-16T14:30:55;5.10;;;3.97;;
77099;SDS011;66602;48.922;2.414;2023-02-16T14:33:22;3.95;;;3.63;;
77099;SDS011;66602;48.922;2.414;2023-02-16T14:41:05;7.35;;;4.30;;
77099;SDS011;66602;48.922;2.414;2023-02-16T14:43:46;5.15;;;4.28;;
77099;SDS011;66602;48.922;2.414;2023-02-16T14:57:20;4.32;;;4.03;;
77099;SDS011;66602;48.922;2.414;2023-02-16T15:04:49;7.35;;;4.32;;
77099;SDS011;66602;48.922;2.414;2023-02-16T15:07:15;4.60;;;4.20;;
77099;SDS011;66602;48.922;2.414;2023-02-16T15:09:42;4.00;;;3.70;;
77099;SDS011;66602;48.922;2.414;2023-02-16T15:12:12;5.40;;;3.80;;
77099;SDS011;66602;48.922;2.414;2023-02-16T15:17:26;4.15;;;3.85;;
77099;SDS011;66602;48.922;2.414;2023-02-16T15:19:55;4.47;;;4.13;;
77099;SDS011;66602;48.922;2.414;2023-02-16T15:22:26;5.95;;;4.30;;
77099;SDS011;66602;48.922;2.414;2023-02-16T15:24:54;10.80;;;4.97;;
77099;SDS011;66602;48.922;2.414;2023-02-16T15:27:21;5.50;;;3.80;;
77099;SDS011;66602;48.922;2.414;2023-02-16T15:30:04;4.72;;;3.78;;
77099;SDS011;66602;48.922;2.414;2023-02-16T15:32:33;4.45;;;4.05;;
77099;SDS011;66602;48.922;2.414;2023-02-16T15:35:07;4.05;;;3.85;;
77099;SDS011;66602;48.922;2.414;2023-02-16T15:37:37;9.80;;;4.20;;
77099;SDS011;66602;48.922;2.414;2023-02-16T15:40:24;5.60;;;3.92;;
77099;SDS011;66602;48.922;2.414;2023-02-16T15:42:54;3.63;;;3.42;;
77099;SDS011;66602;48.922;2.414;2023-02-16T15:45:28;7.68;;;3.70;;
77099;SDS011;66602;48.922;2.414;2023-02-16T15:48:19;5.22;;;3.92;;
77099;SDS011;66602;48.922;2.414;2023-02-16T15:50:49;4.38;;;3.80;;
77099;SDS011;66602;48.922;2.414;2023-02-16T15:53:36;3.75;;;3.45;;
77099;SDS011;66602;48.922;2.414;2023-02-16T16:04:28;7.90;;;3.30;;
77099;SDS011;66602;48.922;2.414;2023-02-16T16:06:55;3.97;;;3.67;;
77099;SDS011;66602;48.922;2.414;2023-02-16T16:09:31;10.90;;;4.07;;
77099;SDS011;66602;48.922;2.414;2023-02-16T16:12:00;4.15;;;3.85;;
77099;SDS011;66602;48.922;2.414;2023-02-16T16:14:28;3.58;;;3.30;;
77099;SDS011;66602;48.922;2.414;2023-02-16T16:16:57;4.55;;;4.05;;
77099;SDS011;66602;48.922;2.414;2023-02-16T16:19:32;3.90;;;3.50;;
77099;SDS011;66602;48.922;2.414;2023-02-16T16:22:00;3.65;;;3.35;;
77099;SDS011;66602;48.922;2.414;2023-02-16T16:24:35;4.28;;;3.90;;
77099;SDS011;66602;48.922;2.414;2023-02-16T16:27:08;5.32;;;3.83;;
77099;SDS011;66602;48.922;2.414;2023-02-16T16:32:03;9.57;;;3.63;;
77099;SDS011;66602;48.922;2.414;2023-02-16T16:36:59;4.32;;;3.92;;
77099;SDS011;66602;48.922;2.414;2023-02-16T16:39:30;5.00;;;4.18;;
77099;SDS011;66602;48.922;2.414;2023-02-16T16:49:52;12.50;;;3.80;;
77099;SDS011;66602;48.922;2.414;2023-02-16T16:52:30;3.90;;;3.70;;
77099;SDS011;66602;48.922;2.414;2023-02-16T16:57:45;4.72;;;4.30;;
77099;SDS011;66602;48.922;2.414;2023-02-16T17:00:16;13.00;;;4.45;;
77099;SDS011;66602;48.922;2.414;2023-02-16T17:02:42;8.90;;;4.63;;
77099;SDS011;66602;48.922;2.414;2023-02-16T17:05:08;4.53;;;4.22;;
77099;SDS011;66602;48.922;2.414;2023-02-16T17:07:33;7.00;;;4.20;;
77099;SDS011;66602;48.922;2.414;2023-02-16T17:09:59;6.13;;;4.53;;
77099;SDS011;66602;48.922;2.414;2023-02-16T17:12:25;6.30;;;4.53;;
77099;SDS011;66602;48.922;2.414;2023-02-16T17:14:51;5.00;;;4.68;;
77099;SDS011;66602;48.922;2.414;2023-02-16T17:17:17;5.28;;;4.18;;
77099;SDS011;66602;48.922;2.414;2023-02-16T17:19:43;4.60;;;4.32;;
77099;SDS011;66602;48.922;2.414;2023-02-16T17:22:12;4.85;;;4.55;;
77099;SDS011;66602;48.922;2.414;2023-02-16T17:24:42;5.60;;;5.20;;
77099;SDS011;66602;48.922;2.414;2023-02-16T17:27:08;9.27;;;4.47;;
77099;SDS011;66602;48.922;2.414;2023-02-16T17:29:34;6.43;;;4.63;;
77099;SDS011;66602;48.922;2.414;2023-02-16T17:32:00;5.20;;;4.45;;
77099;SDS011;66602;48.922;2.414;2023-02-16T17:34:26;4.82;;;4.43;;
77099;SDS011;66602;48.922;2.414;2023-02-16T17:36:58;10.57;;;4.75;;
77099;SDS011;66602;48.922;2.414;2023-02-16T17:39:27;7.88;;;4.80;;
77099;SDS011;66602;48.922;2.414;2023-02-16T17:41:53;5.43;;;4.85;;
77099;SDS011;66602;48.922;2.414;2023-02-16T17:44:19;8.63;;;4.78;;
77099;SDS011;66602;48.922;2.414;2023-02-16T17:46:44;6.03;;;4.88;;
77099;SDS011;66602;48.922;2.414;2023-02-16T17:49:10;7.55;;;5.25;;
77099;SDS011;66602;48.922;2.414;2023-02-16T17:51:36;7.07;;;5.20;;
77099;SDS011;66602;48.922;2.414;2023-02-16T17:54:02;5.57;;;5.07;;
77099;SDS011;66602;48.922;2.414;2023-02-16T17:56:29;5.80;;;4.82;;
77099;SDS011;66602;48.922;2.414;2023-02-16T17:58:56;5.00;;;4.70;;
77099;SDS011;66602;48.922;2.414;2023-02-16T18:01:22;5.00;;;4.53;;
77099;SDS011;66602;48.922;2.414;2023-02-16T18:03:48;4.95;;;4.57;;
77099;SDS011;66602;48.922;2.414;2023-02-16T18:06:14;6.25;;;5.65;;
77099;SDS011;66602;48.922;2.414;2023-02-16T18:08:41;9.43;;;5.53;;
77099;SDS011;66602;48.922;2.414;2023-02-16T18:11:07;6.30;;;5.65;;
77099;SDS011;66602;48.922;2.414;2023-02-16T18:13:32;10.25;;;4.82;;